sensor_id;sensor_type;location;lat;lon;timestamp;temperature;humidity
42227;DHT22;27892;52.378;13.122;2022-12-07T00:01:11;6.80;71.80
42227;DHT22;27892;52.378;13.122;2022-12-07T00:03:38;6.80;72.10
42227;DHT22;27892;52.378;13.122;2022-12-07T00:06:05;6.80;72.20
42227;DHT22;27892;52.378;13.122;2022-12-07T00:08:32;6.80;71.80
42227;DHT22;27892;52.378;13.122;2022-12-07T00:11:06;6.80;71.30
42227;DHT22;27892;52.378;13.122;2022-12-07T00:13:34;6.70;70.90
42227;DHT22;27892;52.378;13.122;2022-12-07T00:16:07;6.60;70.00
42227;DHT22;27892;52.378;13.122;2022-12-07T00:18:33;6.50;70.20
42227;DHT22;27892;52.378;13.122;2022-12-07T00:21:09;6.40;70.40
42227;DHT22;27892;52.378;13.122;2022-12-07T00:23:35;6.30;70.40
42227;DHT22;27892;52.378;13.122;2022-12-07T00:26:15;6.30;70.60
42227;DHT22;27892;52.378;13.122;2022-12-07T00:28:48;6.30;70.50
42227;DHT22;27892;52.378;13.122;2022-12-07T00:31:16;6.20;70.20
42227;DHT22;27892;52.378;13.122;2022-12-07T00:33:42;6.10;69.80
42227;DHT22;27892;52.378;13.122;2022-12-07T00:36:11;6.00;70.20
42227;DHT22;27892;52.378;13.122;2022-12-07T00:38:38;5.90;70.60
42227;DHT22;27892;52.378;13.122;2022-12-07T00:41:06;5.90;70.50
42227;DHT22;27892;52.378;13.122;2022-12-07T00:43:33;5.90;70.90
42227;DHT22;27892;52.378;13.122;2022-12-07T00:45:58;5.90;70.90
42227;DHT22;27892;52.378;13.122;2022-12-07T00:48:25;6.00;70.90
42227;DHT22;27892;52.378;13.122;2022-12-07T00:50:51;6.00;71.00
42227;DHT22;27892;52.378;13.122;2022-12-07T00:53:17;6.10;71.00
42227;DHT22;27892;52.378;13.122;2022-12-07T00:55:43;6.20;71.00
42227;DHT22;27892;52.378;13.122;2022-12-07T00:58:09;6.20;70.70
42227;DHT22;27892;52.378;13.122;2022-12-07T01:00:36;6.30;70.60
42227;DHT22;27892;52.378;13.122;2022-12-07T01:03:04;6.40;70.80
42227;DHT22;27892;52.378;13.122;2022-12-07T01:05:30;6.40;70.20
42227;DHT22;27892;52.378;13.122;2022-12-07T01:07:56;6.30;70.00
42227;DHT22;27892;52.378;13.122;2022-12-07T01:10:21;6.30;69.80
42227;DHT22;27892;52.378;13.122;2022-12-07T01:12:47;6.30;69.60
42227;DHT22;27892;52.378;13.122;2022-12-07T01:15:13;6.20;69.40
42227;DHT22;27892;52.378;13.122;2022-12-07T01:17:39;6.20;69.40
42227;DHT22;27892;52.378;13.122;2022-12-07T01:20:06;6.10;69.30
42227;DHT22;27892;52.378;13.122;2022-12-07T01:22:42;6.10;69.10
42227;DHT22;27892;52.378;13.122;2022-12-07T01:25:09;6.10;68.80
42227;DHT22;27892;52.378;13.122;2022-12-07T01:27:35;6.00;68.80
42227;DHT22;27892;52.378;13.122;2022-12-07T01:30:02;6.00;69.00
42227;DHT22;27892;52.378;13.122;2022-12-07T01:32:29;5.90;68.60
42227;DHT22;27892;52.378;13.122;2022-12-07T01:34:54;5.80;68.80
42227;DHT22;27892;52.378;13.122;2022-12-07T01:37:20;5.80;68.70
42227;DHT22;27892;52.378;13.122;2022-12-07T01:39:48;5.70;68.70
42227;DHT22;27892;52.378;13.122;2022-12-07T01:42:14;5.70;69.00
42227;DHT22;27892;52.378;13.122;2022-12-07T01:47:53;5.70;69.30
42227;DHT22;27892;52.378;13.122;2022-12-07T01:50:21;5.70;69.40
42227;DHT22;27892;52.378;13.122;2022-12-07T01:52:51;5.60;69.60
42227;DHT22;27892;52.378;13.122;2022-12-07T01:55:17;5.60;69.70
42227;DHT22;27892;52.378;13.122;2022-12-07T01:57:47;5.60;69.80
42227;DHT22;27892;52.378;13.122;2022-12-07T02:00:14;5.70;69.90
42227;DHT22;27892;52.378;13.122;2022-12-07T02:05:22;5.70;70.00
42227;DHT22;27892;52.378;13.122;2022-12-07T02:07:49;5.70;69.70
42227;DHT22;27892;52.378;13.122;2022-12-07T02:10:23;5.70;69.90
42227;DHT22;27892;52.378;13.122;2022-12-07T02:13:03;5.70;69.30
42227;DHT22;27892;52.378;13.122;2022-12-07T02:23:29;5.70;69.40
42227;DHT22;27892;52.378;13.122;2022-12-07T02:31:38;5.80;69.40
42227;DHT22;27892;52.378;13.122;2022-12-07T02:34:18;5.80;69.40
42227;DHT22;27892;52.378;13.122;2022-12-07T02:37:00;5.80;69.80
42227;DHT22;27892;52.378;13.122;2022-12-07T02:39:41;5.80;70.10
42227;DHT22;27892;52.378;13.122;2022-12-07T02:42:13;5.90;70.00
42227;DHT22;27892;52.378;13.122;2022-12-07T02:44:41;5.90;70.00
42227;DHT22;27892;52.378;13.122;2022-12-07T02:47:09;5.90;69.70
42227;DHT22;27892;52.378;13.122;2022-12-07T02:49:38;5.90;69.80
42227;DHT22;27892;52.378;13.122;2022-12-07T02:52:05;5.90;69.90
42227;DHT22;27892;52.378;13.122;2022-12-07T02:54:30;5.90;69.80
42227;DHT22;27892;52.378;13.122;2022-12-07T03:00:05;6.00;70.00
42227;DHT22;27892;52.378;13.122;2022-12-07T03:03:00;6.00;69.90
42227;DHT22;27892;52.378;13.122;2022-12-07T03:08:27;5.90;70.10
42227;DHT22;27892;52.378;13.122;2022-12-07T03:11:05;5.90;70.00
42227;DHT22;27892;52.378;13.122;2022-12-07T03:13:48;5.90;70.30
42227;DHT22;27892;52.378;13.122;2022-12-07T03:16:21;5.90;70.40
42227;DHT22;27892;52.378;13.122;2022-12-07T03:21:22;5.90;70.30
42227;DHT22;27892;52.378;13.122;2022-12-07T03:23:52;5.90;70.40
42227;DHT22;27892;52.378;13.122;2022-12-07T03:26:21;5.90;70.00
42227;DHT22;27892;52.378;13.122;2022-12-07T03:28:52;5.90;70.50
42227;DHT22;27892;52.378;13.122;2022-12-07T03:31:33;5.90;70.60
42227;DHT22;27892;52.378;13.122;2022-12-07T03:34:39;5.90;70.20
42227;DHT22;27892;52.378;13.122;2022-12-07T03:37:57;5.90;70.70
42227;DHT22;27892;52.378;13.122;2022-12-07T03:40:54;5.90;70.80
42227;DHT22;27892;52.378;13.122;2022-12-07T03:43:40;5.90;70.40
42227;DHT22;27892;52.378;13.122;2022-12-07T03:46:36;5.90;70.60
42227;DHT22;27892;52.378;13.122;2022-12-07T03:49:37;6.00;70.50
42227;DHT22;27892;52.378;13.122;2022-12-07T03:55:04;6.00;71.10
42227;DHT22;27892;52.378;13.122;2022-12-07T03:57:33;6.00;70.60
42227;DHT22;27892;52.378;13.122;2022-12-07T04:00:00;5.80;70.10
42227;DHT22;27892;52.378;13.122;2022-12-07T04:02:27;5.80;70.60
42227;DHT22;27892;52.378;13.122;2022-12-07T04:04:53;5.80;71.50
42227;DHT22;27892;52.378;13.122;2022-12-07T04:07:19;5.80;72.10
42227;DHT22;27892;52.378;13.122;2022-12-07T04:09:45;5.80;72.20
42227;DHT22;27892;52.378;13.122;2022-12-07T04:12:10;5.80;71.60
42227;DHT22;27892;52.378;13.122;2022-12-07T04:14:36;5.80;72.40
42227;DHT22;27892;52.378;13.122;2022-12-07T04:17:02;5.90;72.20
42227;DHT22;27892;52.378;13.122;2022-12-07T04:19:33;5.90;72.30
42227;DHT22;27892;52.378;13.122;2022-12-07T04:22:02;5.80;72.10
42227;DHT22;27892;52.378;13.122;2022-12-07T04:24:28;5.80;72.70
42227;DHT22;27892;52.378;13.122;2022-12-07T04:26:54;5.80;73.20
42227;DHT22;27892;52.378;13.122;2022-12-07T04:29:21;5.90;73.30
42227;DHT22;27892;52.378;13.122;2022-12-07T04:31:47;6.00;73.10
42227;DHT22;27892;52.378;13.122;2022-12-07T04:34:14;6.00;73.10
42227;DHT22;27892;52.378;13.122;2022-12-07T04:36:40;6.00;73.00
42227;DHT22;27892;52.378;13.122;2022-12-07T04:39:07;6.00;73.30
42227;DHT22;27892;52.378;13.122;2022-12-07T04:41:33;6.10;73.30
42227;DHT22;27892;52.378;13.122;2022-12-07T04:44:02;6.10;73.20
42227;DHT22;27892;52.378;13.122;2022-12-07T04:46:30;6.20;73.30
42227;DHT22;27892;52.378;13.122;2022-12-07T04:48:56;6.10;72.90
42227;DHT22;27892;52.378;13.122;2022-12-07T04:51:24;6.20;73.40
42227;DHT22;27892;52.378;13.122;2022-12-07T04:53:50;6.20;73.70
42227;DHT22;27892;52.378;13.122;2022-12-07T04:56:17;6.20;73.40
42227;DHT22;27892;52.378;13.122;2022-12-07T04:58:44;6.20;73.20
42227;DHT22;27892;52.378;13.122;2022-12-07T05:01:11;6.10;73.50
42227;DHT22;27892;52.378;13.122;2022-12-07T05:03:37;6.10;73.90
42227;DHT22;27892;52.378;13.122;2022-12-07T05:06:03;6.20;74.40
42227;DHT22;27892;52.378;13.122;2022-12-07T05:08:29;6.30;74.70
42227;DHT22;27892;52.378;13.122;2022-12-07T05:10:55;6.30;74.40
42227;DHT22;27892;52.378;13.122;2022-12-07T05:13:20;6.30;73.90
42227;DHT22;27892;52.378;13.122;2022-12-07T05:15:49;6.30;74.60
42227;DHT22;27892;52.378;13.122;2022-12-07T05:18:15;6.40;74.80
42227;DHT22;27892;52.378;13.122;2022-12-07T05:20:41;6.50;74.90
42227;DHT22;27892;52.378;13.122;2022-12-07T05:23:07;6.50;75.10
42227;DHT22;27892;52.378;13.122;2022-12-07T05:25:34;6.60;75.10
42227;DHT22;27892;52.378;13.122;2022-12-07T05:28:19;6.60;74.80
42227;DHT22;27892;52.378;13.122;2022-12-07T05:30:45;6.70;75.20
42227;DHT22;27892;52.378;13.122;2022-12-07T05:33:11;6.70;74.90
42227;DHT22;27892;52.378;13.122;2022-12-07T05:35:36;6.70;75.00
42227;DHT22;27892;52.378;13.122;2022-12-07T05:38:03;6.70;75.50
42227;DHT22;27892;52.378;13.122;2022-12-07T05:40:28;6.80;75.10
42227;DHT22;27892;52.378;13.122;2022-12-07T05:42:54;6.90;75.40
42227;DHT22;27892;52.378;13.122;2022-12-07T05:45:20;6.90;75.30
42227;DHT22;27892;52.378;13.122;2022-12-07T05:47:45;6.90;75.40
42227;DHT22;27892;52.378;13.122;2022-12-07T05:50:11;6.90;75.30
42227;DHT22;27892;52.378;13.122;2022-12-07T05:52:37;6.90;74.90
42227;DHT22;27892;52.378;13.122;2022-12-07T05:55:02;7.00;75.50
42227;DHT22;27892;52.378;13.122;2022-12-07T05:57:28;6.90;75.10
42227;DHT22;27892;52.378;13.122;2022-12-07T05:59:54;7.00;75.20
42227;DHT22;27892;52.378;13.122;2022-12-07T06:02:19;7.00;74.80
42227;DHT22;27892;52.378;13.122;2022-12-07T06:04:46;7.00;75.50
42227;DHT22;27892;52.378;13.122;2022-12-07T06:07:13;7.10;75.20
42227;DHT22;27892;52.378;13.122;2022-12-07T06:09:39;7.00;74.80
42227;DHT22;27892;52.378;13.122;2022-12-07T06:12:05;7.10;75.20
42227;DHT22;27892;52.378;13.122;2022-12-07T06:14:50;7.10;75.20
42227;DHT22;27892;52.378;13.122;2022-12-07T06:17:16;7.10;75.20
42227;DHT22;27892;52.378;13.122;2022-12-07T06:19:42;7.10;75.30
42227;DHT22;27892;52.378;13.122;2022-12-07T06:22:08;7.10;75.50
42227;DHT22;27892;52.378;13.122;2022-12-07T06:24:35;7.10;75.20
42227;DHT22;27892;52.378;13.122;2022-12-07T06:27:01;7.00;75.30
42227;DHT22;27892;52.378;13.122;2022-12-07T06:29:26;7.10;75.90
42227;DHT22;27892;52.378;13.122;2022-12-07T06:31:52;7.10;75.60
42227;DHT22;27892;52.378;13.122;2022-12-07T06:34:20;7.10;75.80
42227;DHT22;27892;52.378;13.122;2022-12-07T06:36:46;7.20;75.90
42227;DHT22;27892;52.378;13.122;2022-12-07T06:39:17;7.30;76.00
42227;DHT22;27892;52.378;13.122;2022-12-07T06:41:43;7.30;76.00
42227;DHT22;27892;52.378;13.122;2022-12-07T06:44:09;7.30;75.50
42227;DHT22;27892;52.378;13.122;2022-12-07T06:46:35;7.30;75.70
42227;DHT22;27892;52.378;13.122;2022-12-07T06:49:01;7.30;75.60
42227;DHT22;27892;52.378;13.122;2022-12-07T06:51:27;7.40;75.80
42227;DHT22;27892;52.378;13.122;2022-12-07T06:53:52;7.40;75.60
42227;DHT22;27892;52.378;13.122;2022-12-07T06:56:18;7.40;75.80
42227;DHT22;27892;52.378;13.122;2022-12-07T06:58:44;7.50;75.60
42227;DHT22;27892;52.378;13.122;2022-12-07T07:01:14;7.50;75.70
42227;DHT22;27892;52.378;13.122;2022-12-07T07:03:41;7.50;75.70
42227;DHT22;27892;52.378;13.122;2022-12-07T07:06:07;7.50;75.70
42227;DHT22;27892;52.378;13.122;2022-12-07T07:08:34;7.40;75.50
42227;DHT22;27892;52.378;13.122;2022-12-07T07:11:00;7.40;75.60
42227;DHT22;27892;52.378;13.122;2022-12-07T07:13:26;7.40;75.50
42227;DHT22;27892;52.378;13.122;2022-12-07T07:15:53;7.40;75.50
42227;DHT22;27892;52.378;13.122;2022-12-07T07:18:19;7.40;75.70
42227;DHT22;27892;52.378;13.122;2022-12-07T07:20:44;7.40;75.70
42227;DHT22;27892;52.378;13.122;2022-12-07T07:23:10;7.40;75.70
42227;DHT22;27892;52.378;13.122;2022-12-07T07:25:35;7.40;75.90
42227;DHT22;27892;52.378;13.122;2022-12-07T07:28:03;7.50;75.80
42227;DHT22;27892;52.378;13.122;2022-12-07T07:30:28;7.50;75.80
42227;DHT22;27892;52.378;13.122;2022-12-07T07:32:58;7.50;75.50
42227;DHT22;27892;52.378;13.122;2022-12-07T07:35:24;7.30;74.90
42227;DHT22;27892;52.378;13.122;2022-12-07T07:37:50;7.40;75.80
42227;DHT22;27892;52.378;13.122;2022-12-07T07:40:16;7.40;75.70
42227;DHT22;27892;52.378;13.122;2022-12-07T07:42:41;7.50;75.60
42227;DHT22;27892;52.378;13.122;2022-12-07T07:45:08;7.50;75.30
42227;DHT22;27892;52.378;13.122;2022-12-07T07:47:34;7.50;75.30
42227;DHT22;27892;52.378;13.122;2022-12-07T07:50:00;7.50;75.10
42227;DHT22;27892;52.378;13.122;2022-12-07T07:52:26;7.40;75.20
42227;DHT22;27892;52.378;13.122;2022-12-07T07:54:51;7.50;75.40
42227;DHT22;27892;52.378;13.122;2022-12-07T07:57:17;7.50;75.20
42227;DHT22;27892;52.378;13.122;2022-12-07T07:59:43;7.50;74.90
42227;DHT22;27892;52.378;13.122;2022-12-07T08:02:15;7.60;75.10
42227;DHT22;27892;52.378;13.122;2022-12-07T08:04:40;7.60;74.90
42227;DHT22;27892;52.378;13.122;2022-12-07T08:07:06;7.60;75.10
42227;DHT22;27892;52.378;13.122;2022-12-07T08:09:32;7.60;74.70
42227;DHT22;27892;52.378;13.122;2022-12-07T08:11:57;7.60;74.40
42227;DHT22;27892;52.378;13.122;2022-12-07T08:14:24;7.60;74.50
42227;DHT22;27892;52.378;13.122;2022-12-07T08:16:50;7.60;74.80
42227;DHT22;27892;52.378;13.122;2022-12-07T08:19:15;7.70;74.60
42227;DHT22;27892;52.378;13.122;2022-12-07T08:21:41;7.70;74.40
42227;DHT22;27892;52.378;13.122;2022-12-07T08:24:07;7.60;73.80
42227;DHT22;27892;52.378;13.122;2022-12-07T08:26:33;7.60;73.90
42227;DHT22;27892;52.378;13.122;2022-12-07T08:28:59;7.60;73.70
42227;DHT22;27892;52.378;13.122;2022-12-07T08:31:24;7.60;73.20
42227;DHT22;27892;52.378;13.122;2022-12-07T08:33:50;7.60;73.70
42227;DHT22;27892;52.378;13.122;2022-12-07T08:36:16;7.60;73.40
42227;DHT22;27892;52.378;13.122;2022-12-07T08:38:42;7.70;73.20
42227;DHT22;27892;52.378;13.122;2022-12-07T08:41:08;7.90;72.50
42227;DHT22;27892;52.378;13.122;2022-12-07T08:43:34;8.00;72.20
42227;DHT22;27892;52.378;13.122;2022-12-07T08:46:11;8.10;71.30
42227;DHT22;27892;52.378;13.122;2022-12-07T08:48:45;8.10;69.80
42227;DHT22;27892;52.378;13.122;2022-12-07T08:51:12;8.20;69.40
42227;DHT22;27892;52.378;13.122;2022-12-07T08:53:38;8.20;69.50
42227;DHT22;27892;52.378;13.122;2022-12-07T08:56:05;8.20;68.30
42227;DHT22;27892;52.378;13.122;2022-12-07T08:58:33;8.20;68.30
42227;DHT22;27892;52.378;13.122;2022-12-07T09:00:59;8.30;67.80
42227;DHT22;27892;52.378;13.122;2022-12-07T09:03:25;8.30;67.40
42227;DHT22;27892;52.378;13.122;2022-12-07T09:05:51;8.30;67.20
42227;DHT22;27892;52.378;13.122;2022-12-07T09:08:18;8.30;67.20
42227;DHT22;27892;52.378;13.122;2022-12-07T09:10:43;8.20;67.20
42227;DHT22;27892;52.378;13.122;2022-12-07T09:13:09;8.20;66.70
42227;DHT22;27892;52.378;13.122;2022-12-07T09:15:35;8.20;66.40
42227;DHT22;27892;52.378;13.122;2022-12-07T09:18:00;8.20;66.80
42227;DHT22;27892;52.378;13.122;2022-12-07T09:20:26;8.20;66.20
42227;DHT22;27892;52.378;13.122;2022-12-07T09:22:51;8.10;65.40
42227;DHT22;27892;52.378;13.122;2022-12-07T09:25:17;8.10;66.20
42227;DHT22;27892;52.378;13.122;2022-12-07T09:27:43;8.20;66.70
42227;DHT22;27892;52.378;13.122;2022-12-07T09:30:09;8.40;66.40
42227;DHT22;27892;52.378;13.122;2022-12-07T09:32:34;8.40;65.80
42227;DHT22;27892;52.378;13.122;2022-12-07T09:35:00;8.30;65.70
42227;DHT22;27892;52.378;13.122;2022-12-07T09:37:26;8.30;65.80
42227;DHT22;27892;52.378;13.122;2022-12-07T09:39:51;8.40;66.40
42227;DHT22;27892;52.378;13.122;2022-12-07T09:42:38;8.40;66.10
42227;DHT22;27892;52.378;13.122;2022-12-07T09:45:15;8.40;65.70
42227;DHT22;27892;52.378;13.122;2022-12-07T09:47:42;8.10;64.70
42227;DHT22;27892;52.378;13.122;2022-12-07T09:50:21;8.00;65.50
42227;DHT22;27892;52.378;13.122;2022-12-07T09:52:48;8.00;66.00
42227;DHT22;27892;52.378;13.122;2022-12-07T09:55:33;7.90;65.70
42227;DHT22;27892;52.378;13.122;2022-12-07T09:58:00;8.00;66.10
42227;DHT22;27892;52.378;13.122;2022-12-07T10:00:26;7.90;66.30
42227;DHT22;27892;52.378;13.122;2022-12-07T10:03:00;7.90;66.60
42227;DHT22;27892;52.378;13.122;2022-12-07T10:05:35;8.00;66.50
42227;DHT22;27892;52.378;13.122;2022-12-07T10:08:03;8.00;65.90
42227;DHT22;27892;52.378;13.122;2022-12-07T10:10:33;8.10;65.90
42227;DHT22;27892;52.378;13.122;2022-12-07T10:13:05;8.30;66.20
42227;DHT22;27892;52.378;13.122;2022-12-07T10:18:32;8.30;65.50
42227;DHT22;27892;52.378;13.122;2022-12-07T10:21:04;8.30;65.80
42227;DHT22;27892;52.378;13.122;2022-12-07T10:23:30;8.30;65.40
42227;DHT22;27892;52.378;13.122;2022-12-07T10:25:56;8.40;65.90
42227;DHT22;27892;52.378;13.122;2022-12-07T10:28:22;8.50;65.90
42227;DHT22;27892;52.378;13.122;2022-12-07T10:31:01;8.60;64.90
42227;DHT22;27892;52.378;13.122;2022-12-07T10:33:32;8.80;64.50
42227;DHT22;27892;52.378;13.122;2022-12-07T10:35:59;8.90;64.60
42227;DHT22;27892;52.378;13.122;2022-12-07T10:38:26;9.00;64.60
42227;DHT22;27892;52.378;13.122;2022-12-07T10:41:08;9.10;63.60
42227;DHT22;27892;52.378;13.122;2022-12-07T10:43:34;9.20;63.20
42227;DHT22;27892;52.378;13.122;2022-12-07T10:54:36;9.40;62.90
42227;DHT22;27892;52.378;13.122;2022-12-07T11:08:05;8.90;62.40
42227;DHT22;27892;52.378;13.122;2022-12-07T11:14:31;8.80;63.20
42227;DHT22;27892;52.378;13.122;2022-12-07T11:17:41;8.70;63.50
42227;DHT22;27892;52.378;13.122;2022-12-07T11:28:21;8.40;64.70
42227;DHT22;27892;52.378;13.122;2022-12-07T11:34:01;8.60;65.60
42227;DHT22;27892;52.378;13.122;2022-12-07T11:39:23;8.70;65.00
42227;DHT22;27892;52.378;13.122;2022-12-07T11:41:57;8.80;64.50
42227;DHT22;27892;52.378;13.122;2022-12-07T11:44:39;8.90;64.90
42227;DHT22;27892;52.378;13.122;2022-12-07T11:50:22;9.10;64.60
42227;DHT22;27892;52.378;13.122;2022-12-07T11:55:39;9.20;63.40
42227;DHT22;27892;52.378;13.122;2022-12-07T11:58:38;9.20;63.00
42227;DHT22;27892;52.378;13.122;2022-12-07T12:01:09;9.10;63.30
42227;DHT22;27892;52.378;13.122;2022-12-07T12:03:38;9.30;64.20
42227;DHT22;27892;52.378;13.122;2022-12-07T12:06:06;9.40;63.50
42227;DHT22;27892;52.378;13.122;2022-12-07T12:08:41;9.50;63.50
42227;DHT22;27892;52.378;13.122;2022-12-07T12:13:56;9.60;62.50
42227;DHT22;27892;52.378;13.122;2022-12-07T12:16:48;9.50;62.60
42227;DHT22;27892;52.378;13.122;2022-12-07T12:19:42;9.50;62.80
42227;DHT22;27892;52.378;13.122;2022-12-07T12:22:19;9.60;62.30
42227;DHT22;27892;52.378;13.122;2022-12-07T12:24:52;9.70;62.30
42227;DHT22;27892;52.378;13.122;2022-12-07T12:27:30;9.80;61.90
42227;DHT22;27892;52.378;13.122;2022-12-07T12:30:29;9.70;61.60
42227;DHT22;27892;52.378;13.122;2022-12-07T12:32:51;9.60;61.10
42227;DHT22;27892;52.378;13.122;2022-12-07T12:35:36;9.50;61.10
42227;DHT22;27892;52.378;13.122;2022-12-07T12:38:31;9.50;60.90
42227;DHT22;27892;52.378;13.122;2022-12-07T12:40:59;9.40;61.40
42227;DHT22;27892;52.378;13.122;2022-12-07T12:43:49;9.40;61.50
42227;DHT22;27892;52.378;13.122;2022-12-07T13:15:53;8.90;62.50
42227;DHT22;27892;52.378;13.122;2022-12-07T13:21:02;8.90;62.40
42227;DHT22;27892;52.378;13.122;2022-12-07T13:23:52;8.80;62.20
42227;DHT22;27892;52.378;13.122;2022-12-07T13:26:38;8.80;62.50
42227;DHT22;27892;52.378;13.122;2022-12-07T13:29:19;8.80;62.80
42227;DHT22;27892;52.378;13.122;2022-12-07T13:31:56;8.70;62.80
42227;DHT22;27892;52.378;13.122;2022-12-07T13:37:14;8.70;62.90
42227;DHT22;27892;52.378;13.122;2022-12-07T13:39:51;8.80;63.00
42227;DHT22;27892;52.378;13.122;2022-12-07T13:42:30;8.70;62.20
42227;DHT22;27892;52.378;13.122;2022-12-07T13:44:59;8.70;62.70
42227;DHT22;27892;52.378;13.122;2022-12-07T13:50:00;8.70;63.20
42227;DHT22;27892;52.378;13.122;2022-12-07T13:52:30;8.70;62.80
42227;DHT22;27892;52.378;13.122;2022-12-07T13:55:01;8.70;62.70
42227;DHT22;27892;52.378;13.122;2022-12-07T13:57:34;8.70;63.10
42227;DHT22;27892;52.378;13.122;2022-12-07T14:00:05;8.60;63.70
42227;DHT22;27892;52.378;13.122;2022-12-07T14:02:33;8.70;63.60
42227;DHT22;27892;52.378;13.122;2022-12-07T14:05:28;8.70;63.10
42227;DHT22;27892;52.378;13.122;2022-12-07T14:10:55;8.60;63.50
42227;DHT22;27892;52.378;13.122;2022-12-07T14:15:53;8.50;63.40
42227;DHT22;27892;52.378;13.122;2022-12-07T14:18:38;8.50;63.60
42227;DHT22;27892;52.378;13.122;2022-12-07T14:21:16;8.40;63.70
42227;DHT22;27892;52.378;13.122;2022-12-07T14:23:47;8.40;63.50
42227;DHT22;27892;52.378;13.122;2022-12-07T14:26:27;8.30;63.80
42227;DHT22;27892;52.378;13.122;2022-12-07T14:28:52;8.10;63.80
42227;DHT22;27892;52.378;13.122;2022-12-07T14:31:21;8.10;64.40
42227;DHT22;27892;52.378;13.122;2022-12-07T14:33:49;8.10;65.10
42227;DHT22;27892;52.378;13.122;2022-12-07T14:36:15;8.00;64.20
42227;DHT22;27892;52.378;13.122;2022-12-07T14:38:40;7.90;64.20
42227;DHT22;27892;52.378;13.122;2022-12-07T14:41:13;7.80;64.50
42227;DHT22;27892;52.378;13.122;2022-12-07T14:43:59;7.80;64.60
42227;DHT22;27892;52.378;13.122;2022-12-07T14:46:24;7.60;64.60
42227;DHT22;27892;52.378;13.122;2022-12-07T14:48:50;7.60;65.00
42227;DHT22;27892;52.378;13.122;2022-12-07T14:51:16;7.60;65.10
42227;DHT22;27892;52.378;13.122;2022-12-07T14:53:46;7.50;65.20
42227;DHT22;27892;52.378;13.122;2022-12-07T14:56:13;7.50;65.30
42227;DHT22;27892;52.378;13.122;2022-12-07T14:58:40;7.40;65.40
42227;DHT22;27892;52.378;13.122;2022-12-07T15:01:06;7.40;65.60
42227;DHT22;27892;52.378;13.122;2022-12-07T15:03:31;7.30;65.80
42227;DHT22;27892;52.378;13.122;2022-12-07T15:06:00;7.30;65.90
42227;DHT22;27892;52.378;13.122;2022-12-07T15:08:25;7.30;66.00
42227;DHT22;27892;52.378;13.122;2022-12-07T15:10:51;7.20;66.20
42227;DHT22;27892;52.378;13.122;2022-12-07T15:13:16;7.20;66.40
42227;DHT22;27892;52.378;13.122;2022-12-07T15:16:01;7.00;66.50
42227;DHT22;27892;52.378;13.122;2022-12-07T15:18:26;7.00;66.60
42227;DHT22;27892;52.378;13.122;2022-12-07T15:20:52;7.00;66.90
42227;DHT22;27892;52.378;13.122;2022-12-07T15:23:18;7.00;67.10
42227;DHT22;27892;52.378;13.122;2022-12-07T15:25:45;6.90;67.20
42227;DHT22;27892;52.378;13.122;2022-12-07T15:28:11;6.90;67.50
42227;DHT22;27892;52.378;13.122;2022-12-07T15:30:40;6.90;67.50
42227;DHT22;27892;52.378;13.122;2022-12-07T15:33:08;6.90;67.40
42227;DHT22;27892;52.378;13.122;2022-12-07T15:35:38;6.80;67.70
42227;DHT22;27892;52.378;13.122;2022-12-07T15:38:03;6.80;67.90
42227;DHT22;27892;52.378;13.122;2022-12-07T15:40:32;6.70;67.90
42227;DHT22;27892;52.378;13.122;2022-12-07T15:42:57;6.70;68.10
42227;DHT22;27892;52.378;13.122;2022-12-07T15:45:26;6.60;68.50
42227;DHT22;27892;52.378;13.122;2022-12-07T15:47:51;6.60;68.60
42227;DHT22;27892;52.378;13.122;2022-12-07T15:50:17;6.60;68.70
42227;DHT22;27892;52.378;13.122;2022-12-07T15:52:43;6.60;68.80
42227;DHT22;27892;52.378;13.122;2022-12-07T15:55:12;6.50;68.80
42227;DHT22;27892;52.378;13.122;2022-12-07T15:57:38;6.60;69.10
42227;DHT22;27892;52.378;13.122;2022-12-07T16:00:05;6.60;69.20
42227;DHT22;27892;52.378;13.122;2022-12-07T16:02:31;6.60;69.00
42227;DHT22;27892;52.378;13.122;2022-12-07T16:04:57;6.60;69.30
42227;DHT22;27892;52.378;13.122;2022-12-07T16:07:23;6.70;69.30
42227;DHT22;27892;52.378;13.122;2022-12-07T16:09:48;6.60;68.90
42227;DHT22;27892;52.378;13.122;2022-12-07T16:12:15;6.70;68.90
42227;DHT22;27892;52.378;13.122;2022-12-07T16:14:41;6.70;69.00
42227;DHT22;27892;52.378;13.122;2022-12-07T16:17:10;6.60;68.80
42227;DHT22;27892;52.378;13.122;2022-12-07T16:19:36;6.70;68.80
42227;DHT22;27892;52.378;13.122;2022-12-07T16:22:03;6.60;68.90
42227;DHT22;27892;52.378;13.122;2022-12-07T16:24:36;6.60;68.90
42227;DHT22;27892;52.378;13.122;2022-12-07T16:27:02;6.60;69.00
42227;DHT22;27892;52.378;13.122;2022-12-07T16:29:33;6.60;69.10
42227;DHT22;27892;52.378;13.122;2022-12-07T16:31:59;6.50;68.90
42227;DHT22;27892;52.378;13.122;2022-12-07T16:34:24;6.50;69.40
42227;DHT22;27892;52.378;13.122;2022-12-07T16:36:50;6.50;69.10
42227;DHT22;27892;52.378;13.122;2022-12-07T16:39:16;6.50;69.30
42227;DHT22;27892;52.378;13.122;2022-12-07T16:41:43;6.50;69.30
42227;DHT22;27892;52.378;13.122;2022-12-07T16:44:11;6.50;69.00
42227;DHT22;27892;52.378;13.122;2022-12-07T16:46:37;6.40;69.10
42227;DHT22;27892;52.378;13.122;2022-12-07T16:49:08;6.40;69.30
42227;DHT22;27892;52.378;13.122;2022-12-07T16:51:35;6.30;69.10
42227;DHT22;27892;52.378;13.122;2022-12-07T16:54:02;6.30;69.30
42227;DHT22;27892;52.378;13.122;2022-12-07T16:56:28;6.30;69.80
42227;DHT22;27892;52.378;13.122;2022-12-07T16:58:54;6.30;69.70
42227;DHT22;27892;52.378;13.122;2022-12-07T17:01:21;6.30;69.80
42227;DHT22;27892;52.378;13.122;2022-12-07T17:03:53;6.30;69.70
42227;DHT22;27892;52.378;13.122;2022-12-07T17:06:24;6.30;69.70
42227;DHT22;27892;52.378;13.122;2022-12-07T17:08:51;6.30;69.70
42227;DHT22;27892;52.378;13.122;2022-12-07T17:11:22;6.30;69.40
42227;DHT22;27892;52.378;13.122;2022-12-07T17:13:48;6.30;69.40
42227;DHT22;27892;52.378;13.122;2022-12-07T17:16:33;6.30;69.60
42227;DHT22;27892;52.378;13.122;2022-12-07T17:18:58;6.30;69.30
42227;DHT22;27892;52.378;13.122;2022-12-07T17:21:24;6.30;69.10
42227;DHT22;27892;52.378;13.122;2022-12-07T17:23:50;6.30;69.50
42227;DHT22;27892;52.378;13.122;2022-12-07T17:26:19;6.30;69.40
42227;DHT22;27892;52.378;13.122;2022-12-07T17:28:46;6.30;69.30
42227;DHT22;27892;52.378;13.122;2022-12-07T17:31:14;6.20;69.50
42227;DHT22;27892;52.378;13.122;2022-12-07T17:33:40;6.20;69.50
42227;DHT22;27892;52.378;13.122;2022-12-07T17:36:15;6.20;69.70
42227;DHT22;27892;52.378;13.122;2022-12-07T17:38:41;6.20;69.70
42227;DHT22;27892;52.378;13.122;2022-12-07T17:41:16;6.20;70.00
42227;DHT22;27892;52.378;13.122;2022-12-07T17:44:02;6.30;69.90
42227;DHT22;27892;52.378;13.122;2022-12-07T17:46:29;6.20;69.80
42227;DHT22;27892;52.378;13.122;2022-12-07T17:48:56;6.20;69.90